sensor_id;sensor_type;location;lat;lon;timestamp;temperature;humidity
64961;SHT31;51487;52.266;10.542;2023-02-28T00:00:35;0.54;82.60
64961;SHT31;51487;52.266;10.542;2023-02-28T00:03:01;0.57;82.51
64961;SHT31;51487;52.266;10.542;2023-02-28T00:05:28;0.60;82.00
64961;SHT31;51487;52.266;10.542;2023-02-28T00:07:55;0.54;82.41
64961;SHT31;51487;52.266;10.542;2023-02-28T00:10:28;0.50;82.81
64961;SHT31;51487;52.266;10.542;2023-02-28T00:13:00;0.43;82.94
64961;SHT31;51487;52.266;10.542;2023-02-28T00:15:26;0.43;83.13
64961;SHT31;51487;52.266;10.542;2023-02-28T00:17:52;0.35;83.77
64961;SHT31;51487;52.266;10.542;2023-02-28T00:20:18;0.30;83.70
64961;SHT31;51487;52.266;10.542;2023-02-28T00:22:51;0.19;83.87
64961;SHT31;51487;52.266;10.542;2023-02-28T00:25:21;0.09;83.86
64961;SHT31;51487;52.266;10.542;2023-02-28T00:27:48;0.10;83.72
64961;SHT31;51487;52.266;10.542;2023-02-28T00:30:17;0.09;84.03
64961;SHT31;51487;52.266;10.542;2023-02-28T00:32:43;0.06;83.89
64961;SHT31;51487;52.266;10.542;2023-02-28T00:35:10;-0.01;84.24
64961;SHT31;51487;52.266;10.542;2023-02-28T00:37:37;-0.01;84.62
64961;SHT31;51487;52.266;10.542;2023-02-28T00:40:04;0.01;84.34
64961;SHT31;51487;52.266;10.542;2023-02-28T00:42:31;0.06;84.18
64961;SHT31;51487;52.266;10.542;2023-02-28T00:44:57;0.05;84.24
64961;SHT31;51487;52.266;10.542;2023-02-28T00:47:22;-0.02;84.77
64961;SHT31;51487;52.266;10.542;2023-02-28T00:49:48;-0.04;84.49
64961;SHT31;51487;52.266;10.542;2023-02-28T00:52:13;0.01;84.10
64961;SHT31;51487;52.266;10.542;2023-02-28T00:54:39;-0.04;84.56
64961;SHT31;51487;52.266;10.542;2023-02-28T00:57:04;-0.04;84.93
64961;SHT31;51487;52.266;10.542;2023-02-28T00:59:30;-0.02;84.68
64961;SHT31;51487;52.266;10.542;2023-02-28T01:01:56;-0.06;84.66
64961;SHT31;51487;52.266;10.542;2023-02-28T01:04:21;0.01;84.97
64961;SHT31;51487;52.266;10.542;2023-02-28T01:06:47;0.13;84.70
64961;SHT31;51487;52.266;10.542;2023-02-28T01:09:12;0.10;84.31
64961;SHT31;51487;52.266;10.542;2023-02-28T01:11:39;0.13;83.98
64961;SHT31;51487;52.266;10.542;2023-02-28T01:14:07;0.12;83.67
64961;SHT31;51487;52.266;10.542;2023-02-28T01:16:32;0.19;83.25
64961;SHT31;51487;52.266;10.542;2023-02-28T01:18:58;0.17;83.78
64961;SHT31;51487;52.266;10.542;2023-02-28T01:21:24;0.02;84.01
64961;SHT31;51487;52.266;10.542;2023-02-28T01:23:50;0.10;84.38
64961;SHT31;51487;52.266;10.542;2023-02-28T01:26:20;0.17;83.55
64961;SHT31;51487;52.266;10.542;2023-02-28T01:28:47;0.20;83.47
64961;SHT31;51487;52.266;10.542;2023-02-28T01:31:13;0.23;83.45
64961;SHT31;51487;52.266;10.542;2023-02-28T01:33:39;0.23;83.61
64961;SHT31;51487;52.266;10.542;2023-02-28T01:36:13;0.35;83.25
64961;SHT31;51487;52.266;10.542;2023-02-28T01:38:39;0.36;83.44
64961;SHT31;51487;52.266;10.542;2023-02-28T01:41:06;0.30;83.12
64961;SHT31;51487;52.266;10.542;2023-02-28T01:46:10;0.19;84.15
64961;SHT31;51487;52.266;10.542;2023-02-28T01:48:51;0.27;84.00
64961;SHT31;51487;52.266;10.542;2023-02-28T01:51:35;0.32;83.95
64961;SHT31;51487;52.266;10.542;2023-02-28T01:54:09;0.25;83.96
64961;SHT31;51487;52.266;10.542;2023-02-28T01:56:45;0.20;83.88
64961;SHT31;51487;52.266;10.542;2023-02-28T01:59:27;0.32;83.59
64961;SHT31;51487;52.266;10.542;2023-02-28T02:01:55;0.27;83.49
64961;SHT31;51487;52.266;10.542;2023-02-28T02:04:26;0.23;82.98
64961;SHT31;51487;52.266;10.542;2023-02-28T02:06:52;0.25;83.19
64961;SHT31;51487;52.266;10.542;2023-02-28T02:09:18;0.17;83.41
64961;SHT31;51487;52.266;10.542;2023-02-28T02:11:45;0.12;83.85
64961;SHT31;51487;52.266;10.542;2023-02-28T02:17:36;-0.06;84.68
64961;SHT31;51487;52.266;10.542;2023-02-28T02:20:32;-0.14;85.01
64961;SHT31;51487;52.266;10.542;2023-02-28T02:25:52;-0.16;84.56
64961;SHT31;51487;52.266;10.542;2023-02-28T02:37:48;0.13;83.77
64961;SHT31;51487;52.266;10.542;2023-02-28T02:40:25;0.17;83.45
64961;SHT31;51487;52.266;10.542;2023-02-28T02:43:43;0.19;83.11
64961;SHT31;51487;52.266;10.542;2023-02-28T02:46:10;0.37;83.12
64961;SHT31;51487;52.266;10.542;2023-02-28T02:48:41;0.43;82.65
64961;SHT31;51487;52.266;10.542;2023-02-28T02:51:17;0.45;82.95
64961;SHT31;51487;52.266;10.542;2023-02-28T02:53:54;0.54;82.55
64961;SHT31;51487;52.266;10.542;2023-02-28T02:56:27;0.61;82.19
64961;SHT31;51487;52.266;10.542;2023-02-28T02:59:00;0.63;82.48
64961;SHT31;51487;52.266;10.542;2023-02-28T03:01:28;0.68;82.29
64961;SHT31;51487;52.266;10.542;2023-02-28T03:04:28;0.60;82.42
64961;SHT31;51487;52.266;10.542;2023-02-28T03:06:53;0.46;83.06
64961;SHT31;51487;52.266;10.542;2023-02-28T03:09:24;0.40;82.88
64961;SHT31;51487;52.266;10.542;2023-02-28T03:11:54;0.37;83.02
64961;SHT31;51487;52.266;10.542;2023-02-28T03:23:40;0.57;81.49
64961;SHT31;51487;52.266;10.542;2023-02-28T03:26:19;0.64;81.56
64961;SHT31;51487;52.266;10.542;2023-02-28T03:29:05;0.57;81.79
64961;SHT31;51487;52.266;10.542;2023-02-28T03:31:37;0.74;80.36
64961;SHT31;51487;52.266;10.542;2023-02-28T03:34:36;0.83;79.40
64961;SHT31;51487;52.266;10.542;2023-02-28T03:37:13;0.81;78.43
64961;SHT31;51487;52.266;10.542;2023-02-28T03:40:14;0.80;79.24
64961;SHT31;51487;52.266;10.542;2023-02-28T03:42:45;0.71;78.68
64961;SHT31;51487;52.266;10.542;2023-02-28T03:45:21;0.85;77.73
64961;SHT31;51487;52.266;10.542;2023-02-28T03:48:09;0.85;77.30
64961;SHT31;51487;52.266;10.542;2023-02-28T03:50:41;0.91;78.24
64961;SHT31;51487;52.266;10.542;2023-02-28T03:53:37;1.01;77.42
64961;SHT31;51487;52.266;10.542;2023-02-28T03:56:14;0.98;77.75
64961;SHT31;51487;52.266;10.542;2023-02-28T03:59:04;0.96;77.10
64961;SHT31;51487;52.266;10.542;2023-02-28T04:01:39;1.14;76.85
64961;SHT31;51487;52.266;10.542;2023-02-28T04:04:08;1.11;76.29
64961;SHT31;51487;52.266;10.542;2023-02-28T04:06:37;1.14;76.26
64961;SHT31;51487;52.266;10.542;2023-02-28T04:09:06;1.05;77.49
64961;SHT31;51487;52.266;10.542;2023-02-28T04:11:46;1.02;76.93
64961;SHT31;51487;52.266;10.542;2023-02-28T04:14:13;0.99;76.40
64961;SHT31;51487;52.266;10.542;2023-02-28T04:16:41;0.98;76.16
64961;SHT31;51487;52.266;10.542;2023-02-28T04:19:09;0.94;75.34
64961;SHT31;51487;52.266;10.542;2023-02-28T04:21:42;0.88;74.97
64961;SHT31;51487;52.266;10.542;2023-02-28T04:24:15;0.94;75.08
64961;SHT31;51487;52.266;10.542;2023-02-28T04:26:48;1.02;75.10
64961;SHT31;51487;52.266;10.542;2023-02-28T04:29:23;1.12;75.16
64961;SHT31;51487;52.266;10.542;2023-02-28T04:31:49;1.14;75.82
64961;SHT31;51487;52.266;10.542;2023-02-28T04:34:16;1.08;76.74
64961;SHT31;51487;52.266;10.542;2023-02-28T04:36:42;1.16;76.09
64961;SHT31;51487;52.266;10.542;2023-02-28T04:39:07;1.06;76.18
64961;SHT31;51487;52.266;10.542;2023-02-28T04:41:35;0.84;76.77
64961;SHT31;51487;52.266;10.542;2023-02-28T04:44:00;0.81;76.93
64961;SHT31;51487;52.266;10.542;2023-02-28T04:46:26;0.73;77.23
64961;SHT31;51487;52.266;10.542;2023-02-28T04:48:51;0.73;77.28
64961;SHT31;51487;52.266;10.542;2023-02-28T04:51:18;0.75;77.40
64961;SHT31;51487;52.266;10.542;2023-02-28T04:53:45;0.73;77.56
64961;SHT31;51487;52.266;10.542;2023-02-28T04:56:14;0.67;77.87
64961;SHT31;51487;52.266;10.542;2023-02-28T04:58:41;0.64;77.87
64961;SHT31;51487;52.266;10.542;2023-02-28T05:01:32;0.68;77.92
64961;SHT31;51487;52.266;10.542;2023-02-28T05:04:00;0.60;78.28
64961;SHT31;51487;52.266;10.542;2023-02-28T05:06:29;0.46;78.84
64961;SHT31;51487;52.266;10.542;2023-02-28T05:08:56;0.47;78.84
64961;SHT31;51487;52.266;10.542;2023-02-28T05:11:31;0.43;79.19
64961;SHT31;51487;52.266;10.542;2023-02-28T05:14:05;0.50;79.05
64961;SHT31;51487;52.266;10.542;2023-02-28T05:16:32;0.42;79.25
64961;SHT31;51487;52.266;10.542;2023-02-28T05:18:57;0.52;79.37
64961;SHT31;51487;52.266;10.542;2023-02-28T05:21:31;0.54;79.14
64961;SHT31;51487;52.266;10.542;2023-02-28T05:24:02;0.47;79.31
64961;SHT31;51487;52.266;10.542;2023-02-28T05:26:29;0.50;79.36
64961;SHT31;51487;52.266;10.542;2023-02-28T05:28:55;0.40;79.06
64961;SHT31;51487;52.266;10.542;2023-02-28T05:31:21;0.54;78.78
64961;SHT31;51487;52.266;10.542;2023-02-28T05:33:46;0.60;78.61
64961;SHT31;51487;52.266;10.542;2023-02-28T05:36:13;0.63;78.28
64961;SHT31;51487;52.266;10.542;2023-02-28T05:38:38;0.71;78.17
64961;SHT31;51487;52.266;10.542;2023-02-28T05:41:08;0.73;77.88
64961;SHT31;51487;52.266;10.542;2023-02-28T05:43:35;0.75;77.91
64961;SHT31;51487;52.266;10.542;2023-02-28T05:46:04;0.75;77.90
64961;SHT31;51487;52.266;10.542;2023-02-28T05:48:31;0.67;78.12
64961;SHT31;51487;52.266;10.542;2023-02-28T05:50:57;0.57;78.42
64961;SHT31;51487;52.266;10.542;2023-02-28T05:53:23;0.49;78.43
64961;SHT31;51487;52.266;10.542;2023-02-28T05:55:49;0.45;78.68
64961;SHT31;51487;52.266;10.542;2023-02-28T05:58:14;0.40;78.45
64961;SHT31;51487;52.266;10.542;2023-02-28T06:00:40;0.39;78.46
64961;SHT31;51487;52.266;10.542;2023-02-28T06:03:05;0.39;78.50
64961;SHT31;51487;52.266;10.542;2023-02-28T06:05:31;0.42;78.42
64961;SHT31;51487;52.266;10.542;2023-02-28T06:07:56;0.33;78.46
64961;SHT31;51487;52.266;10.542;2023-02-28T06:10:22;0.29;78.60
64961;SHT31;51487;52.266;10.542;2023-02-28T06:12:47;0.26;78.68
64961;SHT31;51487;52.266;10.542;2023-02-28T06:15:15;0.29;78.71
64961;SHT31;51487;52.266;10.542;2023-02-28T06:17:42;0.27;78.84
64961;SHT31;51487;52.266;10.542;2023-02-28T06:20:10;0.25;78.74
64961;SHT31;51487;52.266;10.542;2023-02-28T06:22:38;0.27;78.72
64961;SHT31;51487;52.266;10.542;2023-02-28T06:25:06;0.26;78.82
64961;SHT31;51487;52.266;10.542;2023-02-28T06:27:33;0.19;78.94
64961;SHT31;51487;52.266;10.542;2023-02-28T06:29:59;0.20;78.77
64961;SHT31;51487;52.266;10.542;2023-02-28T06:32:25;0.20;79.04
64961;SHT31;51487;52.266;10.542;2023-02-28T06:34:50;0.22;79.04
64961;SHT31;51487;52.266;10.542;2023-02-28T06:37:17;0.17;79.18
64961;SHT31;51487;52.266;10.542;2023-02-28T06:39:45;0.19;79.23
64961;SHT31;51487;52.266;10.542;2023-02-28T06:42:10;0.19;79.16
64961;SHT31;51487;52.266;10.542;2023-02-28T06:44:36;0.10;79.37
64961;SHT31;51487;52.266;10.542;2023-02-28T06:47:05;-0.04;80.06
64961;SHT31;51487;52.266;10.542;2023-02-28T06:49:33;-0.06;80.12
64961;SHT31;51487;52.266;10.542;2023-02-28T06:51:59;0.01;80.07
64961;SHT31;51487;52.266;10.542;2023-02-28T06:54:25;0.08;79.88
64961;SHT31;51487;52.266;10.542;2023-02-28T06:56:50;0.10;79.88
64961;SHT31;51487;52.266;10.542;2023-02-28T06:59:16;0.12;79.54
64961;SHT31;51487;52.266;10.542;2023-02-28T07:01:42;0.09;79.75
64961;SHT31;51487;52.266;10.542;2023-02-28T07:04:08;0.20;79.55
64961;SHT31;51487;52.266;10.542;2023-02-28T07:06:33;0.20;79.41
64961;SHT31;51487;52.266;10.542;2023-02-28T07:08:59;0.25;79.20
64961;SHT31;51487;52.266;10.542;2023-02-28T07:11:27;0.27;79.32
64961;SHT31;51487;52.266;10.542;2023-02-28T07:13:54;0.35;79.02
64961;SHT31;51487;52.266;10.542;2023-02-28T07:16:23;0.40;78.96
64961;SHT31;51487;52.266;10.542;2023-02-28T07:18:49;0.56;78.52
64961;SHT31;51487;52.266;10.542;2023-02-28T07:21:15;0.53;78.30
64961;SHT31;51487;52.266;10.542;2023-02-28T07:23:41;0.54;78.31
64961;SHT31;51487;52.266;10.542;2023-02-28T07:26:13;0.56;78.47
64961;SHT31;51487;52.266;10.542;2023-02-28T07:28:41;0.45;78.77
64961;SHT31;51487;52.266;10.542;2023-02-28T07:31:09;0.57;78.41
64961;SHT31;51487;52.266;10.542;2023-02-28T07:33:35;0.58;78.30
64961;SHT31;51487;52.266;10.542;2023-02-28T07:36:07;0.70;78.02
64961;SHT31;51487;52.266;10.542;2023-02-28T07:38:35;0.68;77.85
64961;SHT31;51487;52.266;10.542;2023-02-28T07:41:02;0.71;78.21
64961;SHT31;51487;52.266;10.542;2023-02-28T07:43:32;0.70;78.25
64961;SHT31;51487;52.266;10.542;2023-02-28T07:46:08;0.75;77.94
64961;SHT31;51487;52.266;10.542;2023-02-28T07:48:34;0.74;78.04
64961;SHT31;51487;52.266;10.542;2023-02-28T07:51:01;0.68;78.14
64961;SHT31;51487;52.266;10.542;2023-02-28T07:53:28;0.78;78.20
64961;SHT31;51487;52.266;10.542;2023-02-28T07:55:55;0.80;77.58
64961;SHT31;51487;52.266;10.542;2023-02-28T07:58:22;0.83;77.66
64961;SHT31;51487;52.266;10.542;2023-02-28T08:00:47;0.91;77.50
64961;SHT31;51487;52.266;10.542;2023-02-28T08:03:13;0.88;77.59
64961;SHT31;51487;52.266;10.542;2023-02-28T08:05:41;0.87;77.59
64961;SHT31;51487;52.266;10.542;2023-02-28T08:08:08;0.87;77.67
64961;SHT31;51487;52.266;10.542;2023-02-28T08:10:34;1.05;77.16
64961;SHT31;51487;52.266;10.542;2023-02-28T08:13:00;1.04;77.04
64961;SHT31;51487;52.266;10.542;2023-02-28T08:15:26;0.95;77.32
64961;SHT31;51487;52.266;10.542;2023-02-28T08:17:52;1.02;77.19
64961;SHT31;51487;52.266;10.542;2023-02-28T08:20:18;0.94;77.30
64961;SHT31;51487;52.266;10.542;2023-02-28T08:22:43;1.08;77.00
64961;SHT31;51487;52.266;10.542;2023-02-28T08:25:09;1.15;76.79
64961;SHT31;51487;52.266;10.542;2023-02-28T08:27:36;1.11;77.16
64961;SHT31;51487;52.266;10.542;2023-02-28T08:30:02;1.22;76.95
64961;SHT31;51487;52.266;10.542;2023-02-28T08:32:28;1.47;75.94
64961;SHT31;51487;52.266;10.542;2023-02-28T08:34:54;1.67;75.75
64961;SHT31;51487;52.266;10.542;2023-02-28T08:37:19;1.77;75.59
64961;SHT31;51487;52.266;10.542;2023-02-28T08:39:45;1.83;75.02
64961;SHT31;51487;52.266;10.542;2023-02-28T08:42:11;1.83;75.36
64961;SHT31;51487;52.266;10.542;2023-02-28T08:44:36;1.74;75.63
64961;SHT31;51487;52.266;10.542;2023-02-28T08:47:02;1.73;76.13
64961;SHT31;51487;52.266;10.542;2023-02-28T08:49:27;1.78;76.27
64961;SHT31;51487;52.266;10.542;2023-02-28T08:51:54;1.76;76.11
64961;SHT31;51487;52.266;10.542;2023-02-28T08:54:20;1.83;76.29
64961;SHT31;51487;52.266;10.542;2023-02-28T08:56:46;1.90;76.50
64961;SHT31;51487;52.266;10.542;2023-02-28T08:59:13;2.01;76.26
64961;SHT31;51487;52.266;10.542;2023-02-28T09:01:39;2.03;76.42
64961;SHT31;51487;52.266;10.542;2023-02-28T09:04:06;2.17;76.10
64961;SHT31;51487;52.266;10.542;2023-02-28T09:06:34;2.28;76.00
64961;SHT31;51487;52.266;10.542;2023-02-28T09:09:00;2.39;75.79
64961;SHT31;51487;52.266;10.542;2023-02-28T09:11:28;2.43;75.68
64961;SHT31;51487;52.266;10.542;2023-02-28T09:13:53;2.50;75.73
64961;SHT31;51487;52.266;10.542;2023-02-28T09:16:21;2.56;75.55
64961;SHT31;51487;52.266;10.542;2023-02-28T09:18:47;2.71;75.30
64961;SHT31;51487;52.266;10.542;2023-02-28T09:21:16;2.71;75.41
64961;SHT31;51487;52.266;10.542;2023-02-28T09:23:45;2.77;75.38
64961;SHT31;51487;52.266;10.542;2023-02-28T09:26:20;2.66;75.66
64961;SHT31;51487;52.266;10.542;2023-02-28T09:28:47;2.73;75.85
64961;SHT31;51487;52.266;10.542;2023-02-28T09:31:22;2.83;75.41
64961;SHT31;51487;52.266;10.542;2023-02-28T09:33:50;2.90;74.76
64961;SHT31;51487;52.266;10.542;2023-02-28T09:36:17;3.00;74.60
64961;SHT31;51487;52.266;10.542;2023-02-28T09:38:42;3.17;74.06
64961;SHT31;51487;52.266;10.542;2023-02-28T09:41:23;3.14;73.89
64961;SHT31;51487;52.266;10.542;2023-02-28T09:43:59;3.13;73.35
64961;SHT31;51487;52.266;10.542;2023-02-28T09:46:39;3.15;73.33
64961;SHT31;51487;52.266;10.542;2023-02-28T09:49:19;3.14;74.06
64961;SHT31;51487;52.266;10.542;2023-02-28T09:52:03;3.18;73.72
64961;SHT31;51487;52.266;10.542;2023-02-28T09:54:32;3.25;73.45
64961;SHT31;51487;52.266;10.542;2023-02-28T09:57:06;8.08;99.99
64961;SHT31;51487;52.266;10.542;2023-02-28T10:00:37;6.74;73.94
64961;SHT31;51487;52.266;10.542;2023-02-28T10:05:44;5.29;67.26
64961;SHT31;51487;52.266;10.542;2023-02-28T10:08:20;4.73;66.47
64961;SHT31;51487;52.266;10.542;2023-02-28T10:11:13;4.57;67.93
64961;SHT31;51487;52.266;10.542;2023-02-28T10:13:59;4.37;68.40
64961;SHT31;51487;52.266;10.542;2023-02-28T10:22:08;3.97;68.38
64961;SHT31;51487;52.266;10.542;2023-02-28T10:24:47;3.87;68.22
64961;SHT31;51487;52.266;10.542;2023-02-28T10:29:49;3.79;68.78
64961;SHT31;51487;52.266;10.542;2023-02-28T10:32:23;3.83;69.15
64961;SHT31;51487;52.266;10.542;2023-02-28T10:34:57;3.82;68.73
64961;SHT31;51487;52.266;10.542;2023-02-28T10:37:22;3.86;68.14
64961;SHT31;51487;52.266;10.542;2023-02-28T10:39:48;3.92;65.42
64961;SHT31;51487;52.266;10.542;2023-02-28T10:42:27;3.87;65.99
64961;SHT31;51487;52.266;10.542;2023-02-28T10:45:14;3.75;67.47
64961;SHT31;51487;52.266;10.542;2023-02-28T10:48:23;3.97;63.78
64961;SHT31;51487;52.266;10.542;2023-02-28T10:56:01;4.18;62.47
64961;SHT31;51487;52.266;10.542;2023-02-28T11:01:41;4.41;62.64
64961;SHT31;51487;52.266;10.542;2023-02-28T11:07:21;4.37;58.83
64961;SHT31;51487;52.266;10.542;2023-02-28T11:09:51;4.23;58.54
64961;SHT31;51487;52.266;10.542;2023-02-28T11:12:38;4.17;59.24
64961;SHT31;51487;52.266;10.542;2023-02-28T11:15:21;4.10;59.75
64961;SHT31;51487;52.266;10.542;2023-02-28T11:18:01;4.06;59.83
64961;SHT31;51487;52.266;10.542;2023-02-28T11:20:31;4.16;59.84
64961;SHT31;51487;52.266;10.542;2023-02-28T11:23:01;4.21;60.18
64961;SHT31;51487;52.266;10.542;2023-02-28T11:25:37;4.16;58.82
64961;SHT31;51487;52.266;10.542;2023-02-28T11:28:08;4.17;59.03
64961;SHT31;51487;52.266;10.542;2023-02-28T11:36:18;4.37;58.33
64961;SHT31;51487;52.266;10.542;2023-02-28T11:38:44;4.31;58.50
64961;SHT31;51487;52.266;10.542;2023-02-28T11:44:30;4.33;58.31
64961;SHT31;51487;52.266;10.542;2023-02-28T11:47:12;4.47;57.90
64961;SHT31;51487;52.266;10.542;2023-02-28T11:50:26;4.69;57.37
64961;SHT31;51487;52.266;10.542;2023-02-28T11:56:23;4.69;56.38
64961;SHT31;51487;52.266;10.542;2023-02-28T11:59:20;4.69;55.02
64961;SHT31;51487;52.266;10.542;2023-02-28T12:07:59;4.75;55.00
64961;SHT31;51487;52.266;10.542;2023-02-28T12:10:30;4.85;55.54
64961;SHT31;51487;52.266;10.542;2023-02-28T12:13:18;4.88;55.79
64961;SHT31;51487;52.266;10.542;2023-02-28T12:27:42;4.71;56.67
64961;SHT31;51487;52.266;10.542;2023-02-28T12:30:29;4.76;56.54
64961;SHT31;51487;52.266;10.542;2023-02-28T12:33:05;4.79;56.24
64961;SHT31;51487;52.266;10.542;2023-02-28T12:35:47;4.89;56.15
64961;SHT31;51487;52.266;10.542;2023-02-28T12:38:26;4.83;55.33
64961;SHT31;51487;52.266;10.542;2023-02-28T12:41:03;4.75;55.83
64961;SHT31;51487;52.266;10.542;2023-02-28T12:43:38;4.81;56.27
64961;SHT31;51487;52.266;10.542;2023-02-28T12:46:16;4.92;55.28
64961;SHT31;51487;52.266;10.542;2023-02-28T12:49:25;4.89;54.80
64961;SHT31;51487;52.266;10.542;2023-02-28T12:51:53;4.76;54.80
64961;SHT31;51487;52.266;10.542;2023-02-28T12:54:30;4.75;55.39
64961;SHT31;51487;52.266;10.542;2023-02-28T13:05:29;4.68;55.21
64961;SHT31;51487;52.266;10.542;2023-02-28T13:08:20;4.79;55.41
64961;SHT31;51487;52.266;10.542;2023-02-28T13:10:51;4.89;54.90
64961;SHT31;51487;52.266;10.542;2023-02-28T13:13:26;4.86;55.23
64961;SHT31;51487;52.266;10.542;2023-02-28T13:21:01;5.15;52.79
64961;SHT31;51487;52.266;10.542;2023-02-28T13:26:17;5.09;53.89
64961;SHT31;51487;52.266;10.542;2023-02-28T13:31:20;4.88;54.32
64961;SHT31;51487;52.266;10.542;2023-02-28T13:36:32;4.97;53.78
64961;SHT31;51487;52.266;10.542;2023-02-28T13:39:44;4.96;54.13
64961;SHT31;51487;52.266;10.542;2023-02-28T13:41:49;5.05;54.70
64961;SHT31;51487;52.266;10.542;2023-02-28T13:44:21;5.06;54.03
64961;SHT31;51487;52.266;10.542;2023-02-28T14:03:52;5.13;52.65
64961;SHT31;51487;52.266;10.542;2023-02-28T14:06:31;5.05;53.03
64961;SHT31;51487;52.266;10.542;2023-02-28T14:09:30;4.95;54.01
64961;SHT31;51487;52.266;10.542;2023-02-28T14:15:04;5.05;54.22
64961;SHT31;51487;52.266;10.542;2023-02-28T14:17:32;5.03;54.32
64961;SHT31;51487;52.266;10.542;2023-02-28T14:19:58;5.03;54.20
64961;SHT31;51487;52.266;10.542;2023-02-28T14:22:54;4.99;54.19
64961;SHT31;51487;52.266;10.542;2023-02-28T14:25:32;5.06;54.18
64961;SHT31;51487;52.266;10.542;2023-02-28T14:31:32;5.06;53.53
64961;SHT31;51487;52.266;10.542;2023-02-28T14:35:03;4.93;53.75
64961;SHT31;51487;52.266;10.542;2023-02-28T14:37:39;4.92;53.93
64961;SHT31;51487;52.266;10.542;2023-02-28T14:40:17;4.99;53.84
64961;SHT31;51487;52.266;10.542;2023-02-28T14:43:03;5.05;53.66
64961;SHT31;51487;52.266;10.542;2023-02-28T14:45:37;5.00;54.61
64961;SHT31;51487;52.266;10.542;2023-02-28T14:48:09;5.03;53.94
64961;SHT31;51487;52.266;10.542;2023-02-28T14:50:36;5.00;54.04
64961;SHT31;51487;52.266;10.542;2023-02-28T14:53:03;4.95;55.15
64961;SHT31;51487;52.266;10.542;2023-02-28T14:55:34;4.99;55.63
64961;SHT31;51487;52.266;10.542;2023-02-28T14:58:06;4.92;55.16
64961;SHT31;51487;52.266;10.542;2023-02-28T15:00:48;4.91;55.31
64961;SHT31;51487;52.266;10.542;2023-02-28T15:03:35;4.88;55.88
64961;SHT31;51487;52.266;10.542;2023-02-28T15:06:13;4.89;54.98
64961;SHT31;51487;52.266;10.542;2023-02-28T15:08:38;4.93;55.45
64961;SHT31;51487;52.266;10.542;2023-02-28T15:11:07;4.91;55.67
64961;SHT31;51487;52.266;10.542;2023-02-28T15:13:52;4.81;56.17
64961;SHT31;51487;52.266;10.542;2023-02-28T15:16:38;4.83;56.01
64961;SHT31;51487;52.266;10.542;2023-02-28T15:19:23;4.78;56.24
64961;SHT31;51487;52.266;10.542;2023-02-28T15:22:11;4.76;56.79
64961;SHT31;51487;52.266;10.542;2023-02-28T15:24:45;4.86;55.82
64961;SHT31;51487;52.266;10.542;2023-02-28T15:29:50;4.89;55.77
64961;SHT31;51487;52.266;10.542;2023-02-28T15:32:36;4.89;56.15
64961;SHT31;51487;52.266;10.542;2023-02-28T15:37:58;4.71;57.23
64961;SHT31;51487;52.266;10.542;2023-02-28T15:40:29;4.72;57.15
64961;SHT31;51487;52.266;10.542;2023-02-28T15:43:03;4.64;56.94
64961;SHT31;51487;52.266;10.542;2023-02-28T15:45:44;4.69;56.81
64961;SHT31;51487;52.266;10.542;2023-02-28T15:48:22;4.58;57.14
64961;SHT31;51487;52.266;10.542;2023-02-28T15:53:33;4.50;57.02
64961;SHT31;51487;52.266;10.542;2023-02-28T15:56:06;4.61;56.80
64961;SHT31;51487;52.266;10.542;2023-02-28T15:58:35;4.58;57.24
64961;SHT31;51487;52.266;10.542;2023-02-28T16:01:38;4.44;57.85
64961;SHT31;51487;52.266;10.542;2023-02-28T16:04:13;4.41;58.13
64961;SHT31;51487;52.266;10.542;2023-02-28T16:06:53;4.44;57.21
64961;SHT31;51487;52.266;10.542;2023-02-28T16:09:26;4.42;57.35
64961;SHT31;51487;52.266;10.542;2023-02-28T16:11:55;4.48;57.11
64961;SHT31;51487;52.266;10.542;2023-02-28T16:14:26;4.44;57.49
64961;SHT31;51487;52.266;10.542;2023-02-28T16:17:03;4.57;56.87
64961;SHT31;51487;52.266;10.542;2023-02-28T16:19:30;4.60;57.16
64961;SHT31;51487;52.266;10.542;2023-02-28T16:21:56;4.54;57.64
64961;SHT31;51487;52.266;10.542;2023-02-28T16:24:22;4.48;57.41
64961;SHT31;51487;52.266;10.542;2023-02-28T16:26:51;4.48;57.53
64961;SHT31;51487;52.266;10.542;2023-02-28T16:29:31;4.64;57.29
64961;SHT31;51487;52.266;10.542;2023-02-28T16:31:58;4.55;57.76
64961;SHT31;51487;52.266;10.542;2023-02-28T16:34:24;4.58;57.25
64961;SHT31;51487;52.266;10.542;2023-02-28T16:36:50;4.55;57.64
64961;SHT31;51487;52.266;10.542;2023-02-28T16:39:16;4.52;57.73
64961;SHT31;51487;52.266;10.542;2023-02-28T16:41:45;4.37;58.04
64961;SHT31;51487;52.266;10.542;2023-02-28T16:44:27;4.37;57.95
64961;SHT31;51487;52.266;10.542;2023-02-28T16:46:53;4.37;58.09
64961;SHT31;51487;52.266;10.542;2023-02-28T16:49:19;4.33;58.15
64961;SHT31;51487;52.266;10.542;2023-02-28T16:51:45;4.24;58.37
64961;SHT31;51487;52.266;10.542;2023-02-28T16:54:10;4.25;58.61
64961;SHT31;51487;52.266;10.542;2023-02-28T16:56:40;4.16;58.69
64961;SHT31;51487;52.266;10.542;2023-02-28T16:59:09;4.13;58.74
64961;SHT31;51487;52.266;10.542;2023-02-28T17:01:35;4.11;58.76
64961;SHT31;51487;52.266;10.542;2023-02-28T17:04:01;4.14;58.92
64961;SHT31;51487;52.266;10.542;2023-02-28T17:06:29;4.06;58.94
64961;SHT31;51487;52.266;10.542;2023-02-28T17:08:56;4.07;59.03
64961;SHT31;51487;52.266;10.542;2023-02-28T17:11:24;4.03;59.19
64961;SHT31;51487;52.266;10.542;2023-02-28T17:13:50;3.99;59.35
64961;SHT31;51487;52.266;10.542;2023-02-28T17:16:29;3.86;59.70
64961;SHT31;51487;52.266;10.542;2023-02-28T17:19:01;3.79;60.08
64961;SHT31;51487;52.266;10.542;2023-02-28T17:21:28;3.72;60.20
64961;SHT31;51487;52.266;10.542;2023-02-28T17:23:53;3.66;59.94
64961;SHT31;51487;52.266;10.542;2023-02-28T17:26:20;3.62;60.16
64961;SHT31;51487;52.266;10.542;2023-02-28T17:28:48;3.55;60.39
64961;SHT31;51487;52.266;10.542;2023-02-28T17:31:14;3.46;60.82
64961;SHT31;51487;52.266;10.542;2023-02-28T17:33:40;3.44;60.91
64961;SHT31;51487;52.266;10.542;2023-02-28T17:36:08;3.32;61.34
64961;SHT31;51487;52.266;10.542;2023-02-28T17:38:35;3.25;61.86
64961;SHT31;51487;52.266;10.542;2023-02-28T17:41:00;3.15;62.30
64961;SHT31;51487;52.266;10.542;2023-02-28T17:43:27;3.14;62.59
64961;SHT31;51487;52.266;10.542;2023-02-28T17:45:54;3.08;62.86
64961;SHT31;51487;52.266;10.542;2023-02-28T17:48:20;3.07;63.01
64961;SHT31;51487;52.266;10.542;2023-02-28T17:50:45;2.97;63.30
64961;SHT31;51487;52.266;10.542;2023-02-28T17:53:11;2.93;63.25
64961;SHT31;51487;52.266;10.542;2023-02-28T17:55:36;2.90;63.41
64961;SHT31;51487;52.266;10.542;2023-02-28T17:58:03;2.87;63.29
64961;SHT31;51487;52.266;10.542;2023-02-28T18:00:29;2.87;63.39
64961;SHT31;51487;52.266;10.542;2023-02-28T18:02:55;2.90;63.48
64961;SHT31;51487;52.266;10.542;2023-02-28T18:05:20;2.87;63.73
64961;SHT31;51487;52.266;10.542;2023-02-28T18:07:46;2.89;63.29
64961;SHT31;51487;52.266;10.542;2023-02-28T18:10:17;2.84;63.20